createdAt,value
2023-01-22T00:00:44.947Z,1011.12
2023-01-22T00:01:44.951Z,1011.11
2023-01-22T00:02:44.975Z,1011.16
2023-01-22T00:03:46.806Z,1011.14
2023-01-22T00:04:44.914Z,1011.14
2023-01-22T00:05:44.883Z,1011.09
2023-01-22T00:06:44.868Z,1011.11
2023-01-22T00:07:44.860Z,1011.12
2023-01-22T00:08:44.860Z,1011.10
2023-01-22T00:09:44.844Z,1011.15
2023-01-22T00:10:44.817Z,1011.07
2023-01-22T00:11:44.806Z,1011.09
2023-01-22T00:12:44.793Z,1011.06
2023-01-22T00:13:44.787Z,1011.06
2023-01-22T00:14:44.808Z,1011.00
2023-01-22T00:15:44.801Z,1011.04
2023-01-22T00:16:44.747Z,1011.02
2023-01-22T00:17:44.750Z,1010.96
2023-01-22T00:18:44.722Z,1011.03
2023-01-22T00:19:44.730Z,1010.96
2023-01-22T00:20:44.691Z,1010.93
2023-01-22T00:21:44.691Z,1010.93
2023-01-22T00:22:44.668Z,1010.95
2023-01-22T00:23:44.668Z,1010.94
2023-01-22T00:24:44.659Z,1010.98
2023-01-22T00:25:44.631Z,1011.00
2023-01-22T00:26:44.616Z,1011.02
2023-01-22T00:27:45.459Z,1010.99
2023-01-22T00:28:44.596Z,1011.00
2023-01-22T00:29:44.595Z,1010.97
2023-01-22T00:30:44.573Z,1010.95
2023-01-22T00:31:44.748Z,1010.96
2023-01-22T00:32:44.542Z,1010.95
2023-01-22T00:33:45.496Z,1010.97
2023-01-22T00:34:44.530Z,1010.94
2023-01-22T00:35:44.506Z,1010.93
2023-01-22T00:36:44.493Z,1010.95
2023-01-22T00:37:44.493Z,1010.94
2023-01-22T00:38:44.467Z,1010.93
2023-01-22T00:39:44.457Z,1010.90
2023-01-22T00:40:44.466Z,1010.88
2023-01-22T00:41:44.430Z,1010.85
2023-01-22T00:42:44.419Z,1010.87
2023-01-22T00:43:44.410Z,1010.82
2023-01-22T00:44:44.395Z,1010.88
2023-01-22T00:45:44.392Z,1010.84
2023-01-22T00:46:44.384Z,1010.84
2023-01-22T00:47:44.355Z,1010.87
2023-01-22T00:48:44.335Z,1010.88
2023-01-22T00:49:44.358Z,1010.91
2023-01-22T00:50:44.328Z,1010.88
2023-01-22T00:51:44.301Z,1010.78
2023-01-22T00:52:44.294Z,1010.86
2023-01-22T00:53:44.279Z,1010.87
2023-01-22T00:54:44.267Z,1010.93
2023-01-22T00:55:44.272Z,1010.89
2023-01-22T00:56:44.235Z,1010.92
2023-01-22T00:57:44.227Z,1010.95
2023-01-22T00:58:44.220Z,1010.91
2023-01-22T00:59:44.203Z,1010.90
2023-01-22T01:00:44.228Z,1010.92
2023-01-22T01:01:44.190Z,1010.90
2023-01-22T01:02:44.163Z,1010.87
2023-01-22T01:03:44.155Z,1010.91
2023-01-22T01:04:44.137Z,1010.88
2023-01-22T01:05:44.137Z,1010.83
2023-01-22T01:06:44.118Z,1010.80
2023-01-22T01:07:44.104Z,1010.81
2023-01-22T01:08:44.087Z,1010.91
2023-01-22T01:09:44.098Z,1010.82
2023-01-22T01:10:44.089Z,1010.85
2023-01-22T01:11:44.052Z,1010.79
2023-01-22T01:12:44.153Z,1010.85
2023-01-22T01:13:44.034Z,1010.79
2023-01-22T01:14:44.017Z,1010.86
2023-01-22T01:15:44.061Z,1010.80
2023-01-22T01:16:43.987Z,1010.80
2023-01-22T01:17:43.977Z,1010.79
2023-01-22T01:18:43.963Z,1010.84
2023-01-22T01:19:43.950Z,1010.78
2023-01-22T01:20:43.953Z,1010.78
2023-01-22T01:21:43.929Z,1010.78
2023-01-22T01:22:43.913Z,1010.80
2023-01-22T01:23:43.906Z,1010.78
2023-01-22T01:24:43.893Z,1010.81
2023-01-22T01:25:43.898Z,1010.83
2023-01-22T01:26:43.860Z,1010.83
2023-01-22T01:27:43.848Z,1010.79
2023-01-22T01:28:43.947Z,1010.83
2023-01-22T01:29:43.828Z,1010.84
2023-01-22T01:30:43.859Z,1010.80
2023-01-22T01:31:43.931Z,1010.83
2023-01-22T01:32:43.793Z,1010.88
2023-01-22T01:33:43.777Z,1010.84
2023-01-22T01:34:43.772Z,1010.79
2023-01-22T01:35:43.771Z,1010.83
2023-01-22T01:36:49.147Z,1010.82
2023-01-22T01:37:44.728Z,1010.82
2023-01-22T01:38:43.718Z,1010.79
2023-01-22T01:39:43.703Z,1010.80
2023-01-22T01:40:43.682Z,1010.74
2023-01-22T01:41:43.683Z,1010.74
2023-01-22T01:42:43.659Z,1010.72
2023-01-22T01:43:43.650Z,1010.71
2023-01-22T01:44:43.752Z,1010.71
2023-01-22T01:45:43.628Z,1010.64
2023-01-22T01:46:43.638Z,1010.70
2023-01-22T01:47:43.595Z,1010.65
2023-01-22T01:48:43.616Z,1010.70
2023-01-22T01:49:43.583Z,1010.69
2023-01-22T01:50:43.559Z,1010.73
2023-01-22T01:51:43.589Z,1010.80
2023-01-22T01:52:43.535Z,1010.72
2023-01-22T01:53:43.529Z,1010.74
2023-01-22T01:54:43.508Z,1010.64
2023-01-22T01:55:43.503Z,1010.72
2023-01-22T01:56:43.496Z,1010.67
2023-01-22T01:57:43.478Z,1010.67
2023-01-22T01:58:43.462Z,1010.69
2023-01-22T01:59:43.448Z,1010.68
2023-01-22T02:00:43.577Z,1010.68
2023-01-22T02:01:43.481Z,1010.71
2023-01-22T02:02:43.405Z,1010.72
2023-01-22T02:03:43.392Z,1010.69
2023-01-22T02:04:43.385Z,1010.67
2023-01-22T02:05:43.372Z,1010.72
2023-01-22T02:06:43.370Z,1010.74
2023-01-22T02:07:43.347Z,1010.68
2023-01-22T02:08:43.341Z,1010.78
2023-01-22T02:09:43.321Z,1010.71
2023-01-22T02:10:43.328Z,1010.73
2023-01-22T02:11:43.308Z,1010.76
2023-01-22T02:12:43.280Z,1010.73
2023-01-22T02:13:43.271Z,1010.69
2023-01-22T02:14:43.259Z,1010.74
2023-01-22T02:15:43.249Z,1010.75
2023-01-22T02:16:43.362Z,1010.68
2023-01-22T02:17:43.227Z,1010.70
2023-01-22T02:18:43.205Z,1010.77
2023-01-22T02:19:43.199Z,1010.79
2023-01-22T02:20:43.184Z,1010.76
2023-01-22T02:21:43.189Z,1010.78
2023-01-22T02:22:43.156Z,1010.76
2023-01-22T02:23:43.153Z,1010.77
2023-01-22T02:24:43.192Z,1010.74
2023-01-22T02:25:43.123Z,1010.78
2023-01-22T02:26:43.139Z,1010.78
2023-01-22T02:27:43.117Z,1010.73
2023-01-22T02:28:43.083Z,1010.75
2023-01-22T02:29:43.084Z,1010.71
2023-01-22T02:30:43.073Z,1010.71
2023-01-22T02:31:43.118Z,1010.72
2023-01-22T02:32:43.147Z,1010.74
2023-01-22T02:33:43.037Z,1010.68
2023-01-22T02:34:43.002Z,1010.70
2023-01-22T02:35:42.991Z,1010.70
2023-01-22T02:36:42.998Z,1010.68
2023-01-22T02:37:42.980Z,1010.73
2023-01-22T02:38:42.954Z,1010.66
2023-01-22T02:39:42.952Z,1010.70
2023-01-22T02:40:42.932Z,1010.71
2023-01-22T02:41:42.942Z,1010.71
2023-01-22T02:42:42.903Z,1010.72
2023-01-22T02:43:42.898Z,1010.73
2023-01-22T02:44:42.893Z,1010.71
2023-01-22T02:45:42.908Z,1010.70
2023-01-22T02:46:42.859Z,1010.69
2023-01-22T02:47:42.862Z,1010.71
2023-01-22T02:48:42.953Z,1010.68
2023-01-22T02:49:42.828Z,1010.69
2023-01-22T02:50:42.806Z,1010.70
2023-01-22T02:51:42.814Z,1010.67
2023-01-22T02:52:42.803Z,1010.69
2023-01-22T02:53:42.769Z,1010.69
2023-01-22T02:54:42.769Z,1010.73
2023-01-22T02:55:42.746Z,1010.76
2023-01-22T02:56:42.733Z,1010.78
2023-01-22T02:57:42.734Z,1010.72
2023-01-22T02:58:42.707Z,1010.77
2023-01-22T02:59:42.694Z,1010.76
2023-01-22T03:00:42.709Z,1010.74
2023-01-22T03:01:42.668Z,1010.79
2023-01-22T03:02:42.675Z,1010.81
2023-01-22T03:03:42.642Z,1010.81
2023-01-22T03:04:42.756Z,1010.80
2023-01-22T03:05:42.620Z,1010.80
2023-01-22T03:06:42.626Z,1010.83
2023-01-22T03:07:42.608Z,1010.78
2023-01-22T03:08:42.577Z,1010.79
2023-01-22T03:09:42.572Z,1010.77
2023-01-22T03:10:42.549Z,1010.74
2023-01-22T03:11:42.542Z,1010.73
2023-01-22T03:12:42.540Z,1010.74
2023-01-22T03:13:42.515Z,1010.68
2023-01-22T03:14:42.502Z,1010.70
2023-01-22T03:15:42.488Z,1010.77
2023-01-22T03:16:42.517Z,1010.72
2023-01-22T03:17:42.475Z,1010.68
2023-01-22T03:18:42.457Z,1010.72
2023-01-22T03:19:42.439Z,1010.65
2023-01-22T03:20:42.543Z,1010.72
2023-01-22T03:21:42.418Z,1010.76
2023-01-22T03:22:42.417Z,1010.72
2023-01-22T03:23:42.392Z,1010.69
2023-01-22T03:24:42.387Z,1010.68
2023-01-22T03:25:42.371Z,1010.64
2023-01-22T03:26:42.360Z,1010.78
2023-01-22T03:27:42.363Z,1010.67
2023-01-22T03:28:42.342Z,1010.65
2023-01-22T03:29:42.316Z,1010.74
2023-01-22T03:30:42.303Z,1010.68
2023-01-22T03:31:42.313Z,1010.65
2023-01-22T03:32:42.292Z,1010.68
2023-01-22T03:33:42.261Z,1010.70
2023-01-22T03:34:42.256Z,1010.70
2023-01-22T03:35:42.232Z,1010.71
2023-01-22T03:36:42.344Z,1010.73
2023-01-22T03:37:42.245Z,1010.66
2023-01-22T03:38:42.212Z,1010.74
2023-01-22T03:39:42.199Z,1010.75
2023-01-22T03:40:42.179Z,1010.74
2023-01-22T03:41:42.167Z,1010.69
2023-01-22T03:42:42.169Z,1010.69
2023-01-22T03:43:42.152Z,1010.66
2023-01-22T03:44:42.122Z,1010.64
2023-01-22T03:45:42.124Z,1010.72
2023-01-22T03:46:42.106Z,1010.72
2023-01-22T03:47:42.085Z,1010.69
2023-01-22T03:48:42.094Z,1010.73
2023-01-22T03:49:42.070Z,1010.71
2023-01-22T03:50:42.051Z,1010.70
2023-01-22T03:51:42.040Z,1010.68
2023-01-22T03:52:42.140Z,1010.77
2023-01-22T03:53:42.026Z,1010.74
2023-01-22T03:54:42.014Z,1010.67
2023-01-22T03:55:41.989Z,1010.79
2023-01-22T03:56:42.039Z,1010.83
2023-01-22T03:57:41.963Z,1010.72
2023-01-22T03:58:41.969Z,1010.79
2023-01-22T03:59:41.932Z,1010.81
2023-01-22T04:00:41.925Z,1010.87
2023-01-22T04:01:41.910Z,1010.80
2023-01-22T04:02:41.966Z,1010.92
2023-01-22T04:03:41.916Z,1010.84
2023-01-22T04:04:41.876Z,1010.89
2023-01-22T04:05:41.859Z,1010.95
2023-01-22T04:06:41.845Z,1010.87
2023-01-22T04:07:41.835Z,1010.88
2023-01-22T04:08:41.965Z,1010.93
2023-01-22T04:09:41.816Z,1010.89
2023-01-22T04:10:41.812Z,1010.89
2023-01-22T04:11:41.785Z,1010.91
2023-01-22T04:12:41.768Z,1010.88
2023-01-22T04:13:41.773Z,1010.91
2023-01-22T04:14:41.748Z,1010.87
2023-01-22T04:15:41.736Z,1010.85
2023-01-22T04:16:41.825Z,1010.91
2023-01-22T04:17:41.707Z,1010.92
2023-01-22T04:18:41.709Z,1010.95
2023-01-22T04:19:41.683Z,1010.91
2023-01-22T04:20:41.677Z,1010.94
2023-01-22T04:21:41.678Z,1010.97
2023-01-22T04:22:41.648Z,1010.97
2023-01-22T04:23:41.665Z,1010.97
2023-01-22T04:24:47.555Z,1011.00
2023-01-22T04:25:42.720Z,1010.98
2023-01-22T04:26:41.601Z,1011.01
2023-01-22T04:27:41.588Z,1010.99
2023-01-22T04:28:41.585Z,1010.96
2023-01-22T04:29:41.578Z,1011.00
2023-01-22T04:30:41.659Z,1011.04
2023-01-22T04:31:41.617Z,1010.99
2023-01-22T04:32:41.521Z,1011.01
2023-01-22T04:33:41.517Z,1011.02
2023-01-22T04:34:41.498Z,1010.98
2023-01-22T04:35:41.478Z,1011.04
2023-01-22T04:36:41.470Z,1011.07
2023-01-22T04:37:41.459Z,1011.01
2023-01-22T04:38:41.454Z,1011.03
2023-01-22T04:39:41.433Z,1011.10
2023-01-22T04:40:41.415Z,1011.12
2023-01-22T04:41:41.520Z,1011.07
2023-01-22T04:42:41.403Z,1011.12
2023-01-22T04:43:41.406Z,1011.13
2023-01-22T04:44:41.378Z,1011.16
2023-01-22T04:45:41.359Z,1011.12
2023-01-22T04:46:41.356Z,1011.11
2023-01-22T04:47:41.327Z,1011.11
2023-01-22T04:48:41.349Z,1011.17
2023-01-22T04:49:41.305Z,1011.14
2023-01-22T04:50:41.293Z,1011.17
2023-01-22T04:51:41.286Z,1011.12
2023-01-22T04:52:41.274Z,1011.08
2023-01-22T04:53:41.272Z,1011.12
2023-01-22T04:54:41.243Z,1011.14
2023-01-22T04:55:41.238Z,1011.11
2023-01-22T04:56:41.217Z,1011.10
2023-01-22T04:57:41.340Z,1011.03
2023-01-22T04:58:41.221Z,1011.13
2023-01-22T04:59:41.178Z,1011.11
2023-01-22T05:00:41.176Z,1011.11
2023-01-22T05:01:41.207Z,1011.02
2023-01-22T05:02:41.227Z,1011.03
2023-01-22T05:03:41.133Z,1011.02
2023-01-22T05:04:41.139Z,1011.02
2023-01-22T05:05:41.107Z,1011.05
2023-01-22T05:06:41.100Z,1011.01
2023-01-22T05:07:41.088Z,1010.97
2023-01-22T05:08:41.069Z,1011.01
2023-01-22T05:09:41.064Z,1011.02
2023-01-22T05:10:41.057Z,1011.02
2023-01-22T05:11:41.028Z,1011.01
2023-01-22T05:12:41.024Z,1011.06
2023-01-22T05:13:41.136Z,1011.05
2023-01-22T05:14:41.022Z,1011.07
2023-01-22T05:15:41.039Z,1011.07
2023-01-22T05:16:40.967Z,1011.01
2023-01-22T05:17:40.950Z,1011.01
2023-01-22T05:18:40.951Z,1011.05
2023-01-22T05:19:40.942Z,1011.06
2023-01-22T05:20:40.914Z,1011.07
2023-01-22T05:21:40.898Z,1011.05
2023-01-22T05:22:40.908Z,1011.11
2023-01-22T05:23:40.889Z,1011.06
2023-01-22T05:24:40.889Z,1011.09
2023-01-22T05:25:40.852Z,1011.13
2023-01-22T05:26:40.840Z,1011.13
2023-01-22T05:27:40.825Z,1011.12
2023-01-22T05:28:40.814Z,1011.09
2023-01-22T05:29:40.950Z,1011.19
2023-01-22T05:30:40.967Z,1011.13
2023-01-22T05:31:40.838Z,1011.15
2023-01-22T05:32:40.767Z,1011.12
2023-01-22T05:33:40.752Z,1011.23
2023-01-22T05:34:40.759Z,1011.19
2023-01-22T05:35:40.722Z,1011.14
2023-01-22T05:36:40.719Z,1011.16
2023-01-22T05:37:40.715Z,1011.18
2023-01-22T05:38:40.688Z,1011.16
2023-01-22T05:39:40.692Z,1011.20
2023-01-22T05:40:40.663Z,1011.17
2023-01-22T05:41:40.647Z,1011.15
2023-01-22T05:42:40.636Z,1011.14
2023-01-22T05:43:40.634Z,1011.18
2023-01-22T05:44:40.628Z,1011.16
2023-01-22T05:45:40.715Z,1011.18
2023-01-22T05:46:40.586Z,1011.17
2023-01-22T05:47:40.575Z,1011.18
2023-01-22T05:48:40.569Z,1011.16
2023-01-22T05:49:40.583Z,1011.23
2023-01-22T05:50:40.536Z,1011.25
2023-01-22T05:51:40.537Z,1011.29
2023-01-22T05:52:40.511Z,1011.23
2023-01-22T05:53:40.505Z,1011.28
2023-01-22T05:54:40.504Z,1011.26
2023-01-22T05:55:40.477Z,1011.22
2023-01-22T05:56:40.465Z,1011.26
2023-01-22T05:57:40.450Z,1011.25
2023-01-22T05:58:40.442Z,1011.23
2023-01-22T05:59:40.433Z,1011.25
2023-01-22T06:00:40.409Z,1011.28
2023-01-22T06:01:40.517Z,1011.16
2023-01-22T06:02:40.424Z,1011.25
2023-01-22T06:03:40.415Z,1011.25
2023-01-22T06:04:40.380Z,1011.26
2023-01-22T06:05:40.345Z,1011.29
2023-01-22T06:06:40.335Z,1011.20
2023-01-22T06:07:40.325Z,1011.28
2023-01-22T06:08:40.314Z,1011.31
2023-01-22T06:09:40.294Z,1011.28
2023-01-22T06:10:40.295Z,1011.31
2023-01-22T06:11:40.271Z,1011.27
2023-01-22T06:12:40.264Z,1011.30
2023-01-22T06:13:40.261Z,1011.31
2023-01-22T06:14:40.230Z,1011.31
2023-01-22T06:15:40.259Z,1011.33
2023-01-22T06:16:40.234Z,1011.33
2023-01-22T06:17:40.312Z,1011.32
2023-01-22T06:18:40.190Z,1011.37
2023-01-22T06:19:40.171Z,1011.37
2023-01-22T06:20:40.172Z,1011.37
2023-01-22T06:21:40.144Z,1011.38
2023-01-22T06:22:40.143Z,1011.40
2023-01-22T06:23:40.120Z,1011.43
2023-01-22T06:24:40.112Z,1011.43
2023-01-22T06:25:40.111Z,1011.39
2023-01-22T06:26:40.080Z,1011.44
2023-01-22T06:27:40.067Z,1011.44
2023-01-22T06:28:40.060Z,1011.43
2023-01-22T06:29:40.331Z,1011.52
2023-01-22T06:30:40.129Z,1011.52
2023-01-22T06:31:40.064Z,1011.43
2023-01-22T06:32:40.010Z,1011.46
2023-01-22T06:33:40.114Z,1011.52
2023-01-22T06:34:39.987Z,1011.51
2023-01-22T06:35:39.993Z,1011.48
2023-01-22T06:36:42.662Z,1011.50
2023-01-22T06:37:39.945Z,1011.49
2023-01-22T06:38:39.933Z,1011.48
2023-01-22T06:39:39.928Z,1011.49
2023-01-22T06:40:39.925Z,1011.47
2023-01-22T06:41:39.899Z,1011.50
2023-01-22T06:42:39.905Z,1011.44
2023-01-22T06:43:39.880Z,1011.45
2023-01-22T06:44:39.874Z,1011.46
2023-01-22T06:45:39.860Z,1011.45
2023-01-22T06:46:39.860Z,1011.47
2023-01-22T06:47:39.820Z,1011.50
2023-01-22T06:48:39.809Z,1011.53
2023-01-22T06:49:39.911Z,1011.58
2023-01-22T06:50:39.805Z,1011.50
2023-01-22T06:51:39.774Z,1011.60
2023-01-22T06:52:39.756Z,1011.56
2023-01-22T06:53:39.751Z,1011.60
2023-01-22T06:54:39.730Z,1011.60
2023-01-22T06:55:39.739Z,1011.65
2023-01-22T06:56:39.707Z,1011.63
2023-01-22T06:57:39.688Z,1011.65
2023-01-22T06:58:39.688Z,1011.68
2023-01-22T06:59:39.666Z,1011.64
2023-01-22T07:00:39.666Z,1011.64
2023-01-22T07:01:39.710Z,1011.59
2023-01-22T07:02:39.631Z,1011.61
2023-01-22T07:03:39.680Z,1011.69
2023-01-22T07:04:39.608Z,1011.64
2023-01-22T07:05:39.734Z,1011.63
2023-01-22T07:06:39.584Z,1011.63
2023-01-22T07:07:39.565Z,1011.65
2023-01-22T07:08:39.554Z,1011.68
2023-01-22T07:09:39.541Z,1011.73
2023-01-22T07:10:39.567Z,1011.68
2023-01-22T07:11:39.522Z,1011.70
2023-01-22T07:12:39.511Z,1011.72
2023-01-22T07:13:39.488Z,1011.73
2023-01-22T07:14:39.489Z,1011.75
2023-01-22T07:15:39.480Z,1011.74
2023-01-22T07:16:39.454Z,1011.81
2023-01-22T07:17:39.442Z,1011.80
2023-01-22T07:18:39.460Z,1011.77
2023-01-22T07:19:39.433Z,1011.82
2023-01-22T07:20:39.434Z,1011.82
2023-01-22T07:21:39.512Z,1011.82
2023-01-22T07:22:39.379Z,1011.83
2023-01-22T07:23:39.365Z,1011.86
2023-01-22T07:24:39.363Z,1011.87
2023-01-22T07:25:39.357Z,1011.90
2023-01-22T07:26:39.328Z,1011.92
2023-01-22T07:27:39.315Z,1011.97
2023-01-22T07:28:39.303Z,1011.98
2023-01-22T07:29:39.299Z,1011.97
2023-01-22T07:30:39.314Z,1011.96
2023-01-22T07:31:39.312Z,1011.97
2023-01-22T07:32:39.248Z,1012.04
2023-01-22T07:33:39.238Z,1011.93
2023-01-22T07:34:39.234Z,1012.02
2023-01-22T07:35:39.262Z,1011.96
2023-01-22T07:36:39.202Z,1012.02
2023-01-22T07:37:39.309Z,1012.07
2023-01-22T07:38:39.181Z,1012.04
2023-01-22T07:39:39.161Z,1012.04
2023-01-22T07:40:39.164Z,1012.06
2023-01-22T07:41:39.141Z,1012.00
2023-01-22T07:42:39.130Z,1011.99
2023-01-22T07:43:39.119Z,1012.01
2023-01-22T07:44:39.098Z,1012.03
2023-01-22T07:45:39.107Z,1012.01
2023-01-22T07:46:39.235Z,1012.06
2023-01-22T07:47:39.067Z,1012.03
2023-01-22T07:48:39.049Z,1012.08
2023-01-22T07:49:39.039Z,1012.08
2023-01-22T07:50:39.047Z,1012.11
2023-01-22T07:51:39.008Z,1012.09
2023-01-22T07:52:38.999Z,1012.15
2023-01-22T07:53:39.103Z,1012.15
2023-01-22T07:54:38.976Z,1012.13
2023-01-22T07:55:38.966Z,1012.06
2023-01-22T07:56:38.958Z,1012.09
2023-01-22T07:57:38.937Z,1012.14
2023-01-22T07:58:38.921Z,1012.15
2023-01-22T07:59:38.918Z,1012.16
2023-01-22T08:00:38.931Z,1012.18
2023-01-22T08:01:38.982Z,1012.24
2023-01-22T08:02:38.871Z,1012.15
2023-01-22T08:03:38.858Z,1012.17
2023-01-22T08:04:38.842Z,1012.20
2023-01-22T08:05:38.836Z,1012.21
2023-01-22T08:06:38.837Z,1012.22
2023-01-22T08:07:38.810Z,1012.18
2023-01-22T08:08:38.796Z,1012.25
2023-01-22T08:09:38.905Z,1012.30
2023-01-22T08:10:38.768Z,1012.28
2023-01-22T08:11:38.776Z,1012.34
2023-01-22T08:12:38.749Z,1012.24
2023-01-22T08:13:38.736Z,1012.30
2023-01-22T08:14:38.722Z,1012.30
2023-01-22T08:15:38.704Z,1012.30
2023-01-22T08:16:38.794Z,1012.27
2023-01-22T08:17:38.678Z,1012.32
2023-01-22T08:18:38.673Z,1012.34
2023-01-22T08:19:38.666Z,1012.34
2023-01-22T08:20:38.641Z,1012.39
2023-01-22T08:21:38.642Z,1012.42
2023-01-22T08:22:38.616Z,1012.41
2023-01-22T08:23:38.611Z,1012.40
2023-01-22T08:24:38.624Z,1012.37
2023-01-22T08:25:38.714Z,1012.44
2023-01-22T08:26:38.584Z,1012.41
2023-01-22T08:27:38.557Z,1012.42
2023-01-22T08:28:38.536Z,1012.42
2023-01-22T08:29:38.525Z,1012.47
2023-01-22T08:30:46.195Z,1012.43
2023-01-22T08:31:38.639Z,1012.45
2023-01-22T08:32:38.590Z,1012.45
2023-01-22T08:33:38.481Z,1012.52
2023-01-22T08:34:38.466Z,1012.50
2023-01-22T08:35:38.451Z,1012.53
2023-01-22T08:36:38.465Z,1012.54
2023-01-22T08:37:38.429Z,1012.51
2023-01-22T08:38:38.418Z,1012.53
2023-01-22T08:39:38.409Z,1012.46
2023-01-22T08:40:38.388Z,1012.49
2023-01-22T08:41:38.511Z,1012.50
2023-01-22T08:42:38.362Z,1012.56
2023-01-22T08:43:38.395Z,1012.52
2023-01-22T08:44:38.337Z,1012.58
2023-01-22T08:45:38.348Z,1012.55
2023-01-22T08:46:38.327Z,1012.53
2023-01-22T08:47:38.302Z,1012.54
2023-01-22T08:48:38.285Z,1012.52
2023-01-22T08:49:38.290Z,1012.53
2023-01-22T08:50:38.269Z,1012.61
2023-01-22T08:51:38.269Z,1012.56
2023-01-22T08:52:38.242Z,1012.55
2023-01-22T08:53:38.222Z,1012.58
2023-01-22T08:54:38.213Z,1012.59
2023-01-22T08:55:38.208Z,1012.58
2023-01-22T08:56:38.182Z,1012.57
2023-01-22T08:57:38.318Z,1012.56
2023-01-22T08:58:38.163Z,1012.57
2023-01-22T08:59:38.152Z,1012.63
2023-01-22T09:00:38.135Z,1012.60
2023-01-22T09:01:38.123Z,1012.58
2023-01-22T09:02:38.120Z,1012.67
2023-01-22T09:03:38.105Z,1012.67
2023-01-22T09:04:39.649Z,1012.67
2023-01-22T09:05:38.073Z,1012.69
2023-01-22T09:06:38.055Z,1012.70
2023-01-22T09:07:38.055Z,1012.70
2023-01-22T09:08:38.031Z,1012.71
2023-01-22T09:09:38.023Z,1012.69
2023-01-22T09:10:38.000Z,1012.73
2023-01-22T09:11:37.994Z,1012.62
2023-01-22T09:12:37.991Z,1012.62
2023-01-22T09:13:38.079Z,1012.58
2023-01-22T09:14:37.955Z,1012.66
2023-01-22T09:15:37.942Z,1012.70
2023-01-22T09:16:37.974Z,1012.67
2023-01-22T09:17:37.933Z,1012.73
2023-01-22T09:18:37.903Z,1012.74
2023-01-22T09:19:37.894Z,1012.70
2023-01-22T09:20:37.878Z,1012.77
2023-01-22T09:21:37.866Z,1012.76
2023-01-22T09:22:37.863Z,1012.86
2023-01-22T09:23:37.840Z,1012.78
2023-01-22T09:24:37.821Z,1012.72
2023-01-22T09:25:37.811Z,1012.85
2023-01-22T09:26:37.796Z,1012.87
2023-01-22T09:27:37.803Z,1012.90
2023-01-22T09:28:37.778Z,1012.90
2023-01-22T09:29:43.758Z,1012.90
2023-01-22T09:30:38.908Z,1012.95
2023-01-22T09:31:37.783Z,1012.94
2023-01-22T09:32:37.741Z,1013.01
2023-01-22T09:33:37.713Z,1013.00
2023-01-22T09:34:37.700Z,1012.98
2023-01-22T09:35:37.692Z,1012.98
2023-01-22T09:36:37.674Z,1013.02
2023-01-22T09:37:37.678Z,1013.09
2023-01-22T09:38:37.649Z,1013.03
2023-01-22T09:39:37.637Z,1013.05
2023-01-22T09:40:37.626Z,1013.04
2023-01-22T09:41:37.615Z,1013.05
2023-01-22T09:42:37.628Z,1013.14
2023-01-22T09:43:37.587Z,1013.13
2023-01-22T09:44:37.594Z,1013.15
2023-01-22T09:45:37.620Z,1013.08
2023-01-22T09:46:37.657Z,1013.10
2023-01-22T09:47:37.559Z,1013.08
2023-01-22T09:48:37.527Z,1013.07
2023-01-22T09:49:37.522Z,1013.06
2023-01-22T09:50:37.507Z,1013.12
2023-01-22T09:51:37.485Z,1013.11
2023-01-22T09:52:37.473Z,1013.12
2023-01-22T09:53:37.483Z,1013.10
2023-01-22T09:54:37.457Z,1013.06
2023-01-22T09:55:37.441Z,1013.05
2023-01-22T09:56:37.421Z,1013.08
2023-01-22T09:57:37.410Z,1013.08
2023-01-22T09:58:37.414Z,1013.12
2023-01-22T09:59:37.382Z,1012.98
2023-01-22T10:00:37.370Z,1012.99
2023-01-22T10:01:37.373Z,1013.01
2023-01-22T10:02:37.538Z,1013.06
2023-01-22T10:03:37.382Z,1013.07
2023-01-22T10:04:37.321Z,1013.03
2023-01-22T10:05:37.314Z,1013.00
2023-01-22T10:06:37.297Z,1012.97
2023-01-22T10:07:37.294Z,1013.03
2023-01-22T10:08:37.287Z,1013.00
2023-01-22T10:09:37.255Z,1012.99
2023-01-22T10:10:37.247Z,1012.96
2023-01-22T10:11:37.271Z,1013.00
2023-01-22T10:12:37.219Z,1012.99
2023-01-22T10:13:37.227Z,1012.99
2023-01-22T10:14:37.209Z,1013.01
2023-01-22T10:15:37.194Z,1013.06
2023-01-22T10:16:37.198Z,1013.05
2023-01-22T10:17:37.183Z,1013.07
2023-01-22T10:18:37.275Z,1013.01
2023-01-22T10:19:37.141Z,1012.97
2023-01-22T10:20:37.129Z,1013.04
2023-01-22T10:21:37.108Z,1013.01
2023-01-22T10:22:37.108Z,1013.06
2023-01-22T10:23:37.103Z,1013.08
2023-01-22T10:24:37.077Z,1013.04
2023-01-22T10:25:37.060Z,1013.01
2023-01-22T10:26:37.052Z,1013.05
2023-01-22T10:27:37.035Z,1013.06
2023-01-22T10:28:37.033Z,1013.07
2023-01-22T10:29:37.012Z,1013.09
2023-01-22T10:30:37.190Z,1013.07
2023-01-22T10:31:37.143Z,1013.08
2023-01-22T10:32:36.975Z,1013.07
2023-01-22T10:33:36.970Z,1013.11
2023-01-22T10:34:37.108Z,1013.11
2023-01-22T10:35:36.931Z,1013.10
2023-01-22T10:36:36.915Z,1013.10
2023-01-22T10:37:36.908Z,1013.08
2023-01-22T10:38:36.943Z,1012.99
2023-01-22T10:39:36.889Z,1013.06
2023-01-22T10:40:36.882Z,1013.10
2023-01-22T10:41:36.863Z,1013.05
2023-01-22T10:42:36.842Z,1013.05
2023-01-22T10:43:36.835Z,1013.05
2023-01-22T10:44:36.830Z,1013.08
2023-01-22T10:45:36.820Z,1013.05
2023-01-22T10:46:36.795Z,1013.05
2023-01-22T10:47:36.783Z,1013.03
2023-01-22T10:48:36.771Z,1013.03
2023-01-22T10:49:36.776Z,1013.04
2023-01-22T10:50:36.887Z,1013.12
2023-01-22T10:51:36.737Z,1013.02
2023-01-22T10:52:36.737Z,1013.06
2023-01-22T10:53:36.713Z,1013.11
2023-01-22T10:54:36.710Z,1013.04
2023-01-22T10:55:36.685Z,1013.06
2023-01-22T10:56:36.668Z,1013.06
2023-01-22T10:57:36.664Z,1013.08
2023-01-22T10:58:36.651Z,1013.11
2023-01-22T10:59:36.672Z,1013.11
2023-01-22T11:00:50.567Z,1013.07
2023-01-22T11:01:37.660Z,1013.11
2023-01-22T11:02:36.665Z,1013.12
2023-01-22T11:03:36.589Z,1013.12
2023-01-22T11:04:36.600Z,1013.11
2023-01-22T11:05:36.558Z,1013.14
2023-01-22T11:06:36.675Z,1013.12
2023-01-22T11:07:36.531Z,1013.12
2023-01-22T11:08:36.519Z,1013.07
2023-01-22T11:09:36.529Z,1013.15
2023-01-22T11:10:36.508Z,1013.16
2023-01-22T11:11:36.477Z,1013.13
2023-01-22T11:12:36.473Z,1013.16
2023-01-22T11:13:36.469Z,1013.11
2023-01-22T11:14:36.467Z,1013.14
2023-01-22T11:15:36.443Z,1013.06
2023-01-22T11:16:36.422Z,1013.12
2023-01-22T11:17:36.409Z,1013.11
2023-01-22T11:18:36.393Z,1013.13
2023-01-22T11:19:37.719Z,1013.12
2023-01-22T11:20:36.376Z,1013.17
2023-01-22T11:21:36.359Z,1013.15
2023-01-22T11:22:36.452Z,1013.12
2023-01-22T11:23:36.329Z,1013.17
2023-01-22T11:24:36.327Z,1013.09
2023-01-22T11:25:36.296Z,1013.14
2023-01-22T11:26:36.286Z,1013.15
2023-01-22T11:27:36.277Z,1013.12
2023-01-22T11:28:36.256Z,1013.08
2023-01-22T11:29:36.421Z,1013.10
2023-01-22T11:30:36.279Z,1013.06
2023-01-22T11:31:36.335Z,1013.10
2023-01-22T11:32:36.208Z,1013.15
2023-01-22T11:33:36.200Z,1013.11
2023-01-22T11:34:36.196Z,1013.10
2023-01-22T11:35:36.173Z,1013.11
2023-01-22T11:36:36.152Z,1013.13
2023-01-22T11:37:36.151Z,1013.06
2023-01-22T11:38:36.249Z,1013.11
2023-01-22T11:39:36.178Z,1013.06
2023-01-22T11:40:36.102Z,1013.11
2023-01-22T11:41:36.090Z,1013.05
2023-01-22T11:42:36.080Z,1013.04
2023-01-22T11:43:36.065Z,1013.09
2023-01-22T11:44:36.064Z,1013.14
2023-01-22T11:45:36.038Z,1013.11
2023-01-22T11:46:36.108Z,1013.12
2023-01-22T11:47:36.011Z,1013.09
2023-01-22T11:48:36.001Z,1013.08
2023-01-22T11:49:36.021Z,1013.04
2023-01-22T11:50:35.974Z,1013.03
2023-01-22T11:51:35.965Z,1013.01
2023-01-22T11:52:35.948Z,1013.05
2023-01-22T11:53:35.938Z,1013.05
2023-01-22T11:54:36.034Z,1012.96
2023-01-22T11:55:35.921Z,1012.95
2023-01-22T11:56:35.893Z,1012.94
2023-01-22T11:57:35.878Z,1012.97
2023-01-22T11:58:35.870Z,1012.95
2023-01-22T11:59:35.961Z,1012.93
2023-01-22T12:00:35.857Z,1012.91
2023-01-22T12:01:35.830Z,1012.90
2023-01-22T12:02:35.862Z,1012.84
2023-01-22T12:03:35.858Z,1012.87
2023-01-22T12:04:35.819Z,1012.85
2023-01-22T12:05:35.791Z,1012.93